Time;durP1;ratioP1;P1;durP2;ratioP2;P2;SDS_P1;SDS_P2;PMS_P1;PMS_P2;Temp;Humidity;BMP_temperature;BMP_pressure;BME280_temperature;BME280_humidity;BME280_pressure;Samples;Min_cycle;Max_cycle;Signal;HPM_P1;HPM_P2
2021/12/10 00:03:06;;;;;;;96.83;37.67;;;;;;;-1.11;100.00;99386.58;3476005;83;99202;-81
2021/12/10 00:08:09;;;;;;;124.02;46.23;;;;;;;-1.11;100.00;99381.17;3488947;82;99202;-82
2021/12/10 00:13:11;;;;;;;86.83;34.10;;;;;;;-1.07;100.00;99389.41;3454636;82;100096;-82
2021/12/10 00:18:17;;;;;;;88.87;35.77;;;;;;;-1.04;100.00;99390.89;3427190;84;99257;-82
2021/12/10 00:23:20;;;;;;;82.20;33.85;;;;;;;-1.05;100.00;99375.05;3460839;83;98660;-82
2021/12/10 00:28:32;;;;;;;96.30;38.07;;;;;;;-1.05;100.00;99367.72;3460557;83;98869;-82
2021/12/10 00:33:38;;;;;;;96.10;36.30;;;;;;;-1.06;100.00;99374.78;3463933;83;99162;-82
2021/12/10 00:38:39;;;;;;;86.55;35.23;;;;;;;-1.08;100.00;99361.64;3469081;83;98995;-83
2021/12/10 00:43:41;;;;;;;83.90;34.23;;;;;;;-1.10;100.00;99371.17;3461415;82;99828;-82
2021/12/10 00:48:43;;;;;;;81.93;32.77;;;;;;;-1.16;100.00;99355.71;3469940;83;99249;-81
2021/12/10 00:53:44;;;;;;;84.47;36.20;;;;;;;-1.13;100.00;99341.58;3450825;83;99375;-81
2021/12/10 00:58:45;;;;;;;93.40;34.37;;;;;;;-1.11;100.00;99343.38;3483978;83;98804;-81
2021/12/10 01:03:55;;;;;;;82.27;32.90;;;;;;;-1.15;100.00;99332.22;3438303;83;2217283;-82
2021/12/10 01:09:01;;;;;;;80.57;34.47;;;;;;;-1.14;100.00;99328.40;3453554;83;99936;-82
2021/12/10 01:14:14;;;;;;;88.85;34.00;;;;;;;-1.17;100.00;99313.64;3443681;83;99299;-81
2021/12/10 01:24:39;;;;;;;78.90;32.27;;;;;;;-1.10;100.00;99324.71;3453360;83;99156;-82
2021/12/10 01:29:42;;;;;;;79.23;31.03;;;;;;;-1.09;100.00;99310.66;3463842;83;31013;-81
2021/12/10 01:34:43;;;;;;;87.67;34.80;;;;;;;-1.10;100.00;99293.66;3437393;83;99304;-81
2021/12/10 01:39:46;;;;;;;84.07;35.10;;;;;;;-1.12;100.00;99274.31;3459468;83;98998;-80
2021/12/10 01:44:51;;;;;;;77.40;32.73;;;;;;;-1.14;100.00;99281.97;3452279;83;99224;-81
2021/12/10 01:49:53;;;;;;;75.50;30.02;;;;;;;-1.12;100.00;99273.52;3480427;83;99307;-81
2021/12/10 01:54:58;;;;;;;86.97;33.23;;;;;;;-1.14;100.00;99254.97;3483911;83;99312;-81
2021/12/10 02:00:00;;;;;;;83.00;34.43;;;;;;;-1.15;100.00;99241.22;3494284;82;99215;-80
2021/12/10 02:05:01;;;;;;;79.47;31.90;;;;;;;-1.09;100.00;99214.83;3459466;83;98957;-81
2021/12/10 02:10:05;;;;;;;84.97;34.80;;;;;;;-1.13;100.00;99205.26;3450786;83;99307;-81
2021/12/10 02:15:11;;;;;;;85.75;36.80;;;;;;;-1.13;100.00;99203.11;3461997;83;99433;-81
2021/12/10 02:20:23;;;;;;;79.00;35.83;;;;;;;-1.18;100.00;99195.20;3467036;83;99113;-80
2021/12/10 02:25:28;;;;;;;83.65;31.30;;;;;;;-1.23;100.00;99206.20;3488121;82;99401;-80
2021/12/10 02:30:30;;;;;;;88.10;34.30;;;;;;;-1.19;100.00;99229.52;3430315;84;99328;-81
2021/12/10 02:35:32;;;;;;;89.57;37.90;;;;;;;-1.15;100.00;99227.72;3479843;83;99060;-81
2021/12/10 02:40:36;;;;;;;82.17;36.47;;;;;;;-1.12;100.00;99214.13;3486846;83;99131;-81
2021/12/10 02:45:40;;;;;;;84.55;32.95;;;;;;;-1.14;100.00;99206.38;3460526;82;99119;-81
2021/12/10 02:50:44;;;;;;;76.77;30.73;;;;;;;-1.16;100.00;99196.45;3467660;83;99211;-80
2021/12/10 02:55:45;;;;;;;73.13;34.00;;;;;;;-1.15;100.00;99202.08;3434915;83;99260;-81
2021/12/10 03:01:09;;;;;;;78.40;32.30;;;;;;;-1.17;100.00;99192.18;3436984;83;99255;-80
2021/12/10 03:06:13;;;;;;;79.58;31.27;;;;;;;-1.13;100.00;99186.91;3445395;83;99261;-80
2021/12/10 03:11:18;;;;;;;73.20;31.67;;;;;;;-1.13;100.00;99178.27;3442224;83;31232;-80
2021/12/10 03:16:20;;;;;;;78.00;32.67;;;;;;;-1.17;100.00;99169.78;3428116;84;99174;-80
2021/12/10 03:21:21;;;;;;;78.47;31.87;;;;;;;-1.16;100.00;99169.46;3454750;84;99019;-80
2021/12/10 03:26:22;;;;;;;81.20;34.73;;;;;;;-1.16;100.00;99168.69;3444990;83;99289;-81
2021/12/10 03:31:26;;;;;;;86.23;34.50;;;;;;;-1.17;100.00;99185.98;3456334;82;99196;-81
2021/12/10 03:36:27;;;;;;;77.37;30.63;;;;;;;-1.29;100.00;99151.64;3450341;83;99170;-82
2021/12/10 03:41:28;;;;;;;73.07;30.93;;;;;;;-1.14;100.00;99165.09;3440748;83;32375;-80
2021/12/10 03:46:29;;;;;;;79.83;34.50;;;;;;;-1.14;100.00;99161.04;3424076;84;99111;-81
2021/12/10 03:51:32;;;;;;;79.03;33.87;;;;;;;-1.12;100.00;99145.30;3450044;83;99029;-81
2021/12/10 03:56:35;;;;;;;76.43;33.67;;;;;;;-1.09;100.00;99148.12;3428743;82;99249;-81
2021/12/10 04:01:42;;;;;;;77.07;32.97;;;;;;;-1.06;100.00;99131.27;3450044;83;99087;-81
2021/12/10 04:06:43;;;;;;;82.33;33.35;;;;;;;-1.06;100.00;99125.88;3433140;83;99027;-81
2021/12/10 04:11:44;;;;;;;75.73;31.77;;;;;;;-1.05;100.00;99119.92;3431356;84;99266;-81
2021/12/10 04:16:45;;;;;;;79.90;32.63;;;;;;;-1.06;100.00;99123.17;3451635;83;98657;-81
2021/12/10 04:21:46;;;;;;;75.90;31.87;;;;;;;-1.04;100.00;99137.70;3444333;83;99089;-81
2021/12/10 04:26:48;;;;;;;76.17;32.93;;;;;;;-1.02;100.00;99130.84;3459784;82;99041;-81
2021/12/10 04:31:53;;;;;;;78.57;31.53;;;;;;;-1.05;100.00;99130.14;3459480;83;99035;-81
2021/12/10 04:36:58;;;;;;;71.22;30.85;;;;;;;-1.05;100.00;99122.63;3493195;82;99508;-81
2021/12/10 04:42:00;;;;;;;64.92;26.90;;;;;;;-1.07;100.00;99114.85;3455645;83;99109;-81
2021/12/10 04:47:01;;;;;;;85.53;32.30;;;;;;;-1.03;100.00;99133.87;3456408;83;32435;-81
2021/12/10 04:52:06;;;;;;;80.57;33.67;;;;;;;-1.00;100.00;99134.57;3442299;83;98875;-81
2021/12/10 04:57:08;;;;;;;85.57;34.80;;;;;;;-0.98;100.00;99138.52;3444872;83;99038;-81
2021/12/10 05:02:12;;;;;;;83.77;32.93;;;;;;;-0.98;100.00;99126.91;3430259;84;99095;-81
2021/12/10 05:07:16;;;;;;;88.90;36.23;;;;;;;-0.98;100.00;99133.12;3465402;83;99429;-81
2021/12/10 05:12:17;;;;;;;87.27;34.20;;;;;;;-0.98;100.00;99127.72;3436589;83;99143;-81
2021/12/10 05:17:18;;;;;;;83.80;32.27;;;;;;;-0.95;100.00;99124.88;3446921;83;32503;-81
2021/12/10 05:22:19;;;;;;;81.83;32.30;;;;;;;-1.00;100.00;99124.54;3452388;83;99048;-80
2021/12/10 05:27:20;;;;;;;92.43;36.23;;;;;;;-1.02;100.00;99101.70;3439340;83;99547;-81
2021/12/10 05:32:21;;;;;;;89.07;36.27;;;;;;;-0.97;100.00;99076.64;3438953;83;99055;-81
2021/12/10 05:37:22;;;;;;;83.03;32.30;;;;;;;-0.93;100.00;99078.87;3430667;84;99179;-81
2021/12/10 05:42:23;;;;;;;89.77;38.27;;;;;;;-0.91;100.00;99066.41;3414502;83;99229;-80
2021/12/10 05:47:24;;;;;;;93.47;37.47;;;;;;;-0.90;100.00;99084.17;3443661;83;32409;-81
2021/12/10 05:52:25;;;;;;;94.83;38.00;;;;;;;-0.90;100.00;99082.82;3457009;83;98964;-81
2021/12/10 05:57:26;;;;;;;87.43;35.23;;;;;;;-0.91;100.00;99093.41;3455201;83;98828;-81
2021/12/10 06:02:27;;;;;;;98.77;39.60;;;;;;;-0.93;100.00;99084.28;3458548;83;98927;-81
2021/12/10 06:07:28;;;;;;;100.50;39.27;;;;;;;-0.92;100.00;99090.48;3426419;84;99086;-81
2021/12/10 06:12:28;;;;;;;97.27;40.00;;;;;;;-0.91;100.00;99089.35;3439199;83;99157;-81
2021/12/10 06:17:29;;;;;;;99.43;37.37;;;;;;;-0.91;100.00;99094.20;3442298;83;27860;-81
2021/12/10 06:22:30;;;;;;;89.07;34.80;;;;;;;-0.88;100.00;99075.20;3431080;83;99853;-82
2021/12/10 06:27:31;;;;;;;101.60;37.17;;;;;;;-0.87;100.00;99068.12;3422367;83;98925;-81
2021/12/10 06:32:32;;;;;;;102.80;40.10;;;;;;;-0.85;100.00;99066.41;3436001;83;99280;-81
2021/12/10 06:37:33;;;;;;;95.50;37.07;;;;;;;-0.84;100.00;99066.08;3407657;84;98490;-81
2021/12/10 06:42:34;;;;;;;94.90;39.70;;;;;;;-0.83;100.00;99063.61;3459889;83;99076;-82
2021/12/10 06:47:35;;;;;;;95.50;39.57;;;;;;;-0.82;100.00;99063.05;3469137;82;33260;-82
2021/12/10 06:52:36;;;;;;;94.13;36.73;;;;;;;-0.84;100.00;99053.12;3441083;83;99272;-81
2021/12/10 06:57:37;;;;;;;103.07;42.93;;;;;;;-0.81;100.00;99062.73;3442033;83;98918;-81
2021/12/10 07:02:38;;;;;;;109.00;41.87;;;;;;;-0.81;100.00;99061.38;3443166;83;99234;-81
2021/12/10 07:07:40;;;;;;;105.47;42.80;;;;;;;-0.78;100.00;99066.67;3429440;83;99193;-81
2021/12/10 07:12:43;;;;;;;103.93;43.23;;;;;;;-0.76;100.00;99077.91;3419692;83;112398;-82
2021/12/10 07:17:48;;;;;;;97.17;40.57;;;;;;;-0.72;100.00;99085.00;3466888;83;33470;-81
2021/12/10 07:22:51;;;;;;;108.90;45.63;;;;;;;-0.68;100.00;99069.71;3456133;83;99233;-82
2021/12/10 07:27:52;;;;;;;113.97;48.03;;;;;;;-0.67;100.00;99061.06;3457337;83;98337;-81
2021/12/10 07:32:53;;;;;;;107.03;41.40;;;;;;;-0.65;100.00;99056.90;3463460;83;99380;-81
2021/12/10 07:37:54;;;;;;;130.13;47.37;;;;;;;-0.64;100.00;99042.81;3470098;83;99172;-82
2021/12/10 07:42:56;;;;;;;117.30;43.02;;;;;;;-0.63;100.00;99049.78;3466111;81;99578;-81
2021/12/10 07:48:00;;;;;;;114.30;41.68;;;;;;;-0.60;100.00;99053.18;3492105;83;99243;-82
2021/12/10 07:53:02;;;;;;;114.03;45.80;;;;;;;-0.58;100.00;99043.61;3434461;83;99172;-82
2021/12/10 07:58:06;;;;;;;122.13;45.07;;;;;;;-0.54;100.00;99039.13;3462453;83;98977;-82
2021/12/10 08:03:08;;;;;;;125.47;44.43;;;;;;;-0.45;100.00;99037.66;3434198;84;99243;-82
2021/12/10 08:08:09;;;;;;;117.83;42.30;;;;;;;-0.36;100.00;99043.16;3447065;83;99242;-82
2021/12/10 08:13:10;;;;;;;111.00;45.37;;;;;;;-0.29;100.00;99042.03;3454929;82;99289;-83
2021/12/10 08:18:11;;;;;;;120.00;43.00;;;;;;;-0.22;100.00;99029.30;3450909;83;99247;-88
2021/12/10 08:23:12;;;;;;;118.80;47.40;;;;;;;-0.15;100.00;99035.14;3444758;83;99590;-89
2021/12/10 08:28:13;;;;;;;106.50;42.63;;;;;;;-0.03;100.00;99037.05;3462853;83;103039;-89
2021/12/10 08:33:15;;;;;;;100.03;40.97;;;;;;;0.04;100.00;99036.70;3451166;83;99434;-89
2021/12/10 08:38:16;;;;;;;105.50;42.33;;;;;;;0.14;100.00;99040.84;3452611;83;99056;-89
2021/12/10 08:43:17;;;;;;;106.60;44.50;;;;;;;0.22;100.00;99039.94;3433423;83;99337;-90
2021/12/10 08:48:20;;;;;;;104.70;44.57;;;;;;;0.28;100.00;99042.03;3452356;83;238093;-89
2021/12/10 08:53:22;;;;;;;116.75;45.92;;;;;;;0.35;100.00;99048.23;3443662;82;99330;-92
2021/12/10 08:58:24;;;;;;;112.53;45.87;;;;;;;0.35;100.00;99053.64;3447414;83;99030;-92
2021/12/10 09:03:24;;;;;;;104.77;42.93;;;;;;;0.34;100.00;99046.08;3433667;83;99018;-90
2021/12/10 09:08:25;;;;;;;109.33;44.77;;;;;;;0.34;100.00;99044.72;3426726;83;99096;-92
2021/12/10 09:13:26;;;;;;;112.87;45.90;;;;;;;0.33;100.00;99059.39;3417681;84;99200;-90
2021/12/10 09:18:29;;;;;;;108.40;42.20;;;;;;;0.24;100.00;99053.31;3435137;84;99068;-89
2021/12/10 09:23:30;;;;;;;107.33;42.67;;;;;;;0.26;100.00;99057.03;3441492;83;99115;-91
2021/12/10 09:28:31;;;;;;;114.72;42.38;;;;;;;0.28;100.00;99057.50;3438970;83;99267;-89
2021/12/10 09:33:33;;;;;;;106.97;43.30;;;;;;;0.33;100.00;99047.80;3432745;83;99233;-87
2021/12/10 09:38:34;;;;;;;126.67;46.63;;;;;;;0.33;100.00;99037.74;3445522;83;99068;-88
2021/12/10 09:43:38;;;;;;;127.73;47.87;;;;;;;0.36;100.00;99035.72;3452407;83;99081;-89
2021/12/10 09:48:42;;;;;;;127.90;45.90;;;;;;;0.40;100.00;99033.87;3483237;82;99111;-87
2021/12/10 09:53:47;;;;;;;126.87;46.27;;;;;;;0.40;100.00;99027.11;3426049;84;99291;-91
2021/12/10 09:58:48;;;;;;;130.37;50.53;;;;;;;0.40;100.00;99016.28;3440139;83;98650;-91
2021/12/10 10:03:59;;;;;;;134.73;48.47;;;;;;;0.45;100.00;99011.22;3426459;84;99130;-89
2021/12/10 10:08:56;;;;;;;143.97;51.80;;;;;;;0.57;100.00;99004.39;3440457;83;99004;-88
2021/12/10 10:13:58;;;;;;;137.10;48.17;;;;;;;0.60;100.00;99011.25;3453844;83;99079;-89
2021/12/10 10:18:59;;;;;;;131.13;47.77;;;;;;;0.65;100.00;98997.47;3461577;82;98986;-90
2021/12/10 10:24:02;;;;;;;137.50;48.52;;;;;;;0.70;100.00;98994.52;3453902;82;99084;-89
2021/12/10 10:29:12;;;;;;;131.27;48.53;;;;;;;0.72;100.00;99001.71;3480041;83;39718;-89
2021/12/10 10:34:15;;;;;;;126.97;46.00;;;;;;;0.68;100.00;99000.86;3472059;83;98806;-90
2021/12/10 10:39:24;;;;;;;153.83;50.47;;;;;;;0.52;100.00;98978.38;3430184;82;99206;-89
2021/12/10 10:44:25;;;;;;;139.70;51.33;;;;;;;0.61;100.00;99010.11;3437137;82;98755;-88
2021/12/10 10:49:43;;;;;;;126.10;43.60;;;;;;;0.62;100.00;99003.56;3447757;83;99490;-87
2021/12/10 10:54:47;;;;;;;148.78;50.38;;;;;;;0.62;100.00;99014.39;3448368;83;99014;-91
2021/12/10 10:59:49;;;;;;;138.97;50.97;;;;;;;0.64;100.00;99009.44;3502779;82;33284;-91
2021/12/10 11:04:52;;;;;;;141.00;50.20;;;;;;;0.67;100.00;99012.02;3427632;83;142294;-88
2021/12/10 11:10:02;;;;;;;115.25;44.42;;;;;;;0.62;100.00;99008.98;3483123;82;99003;-88
2021/12/10 11:15:12;;;;;;;121.83;45.90;;;;;;;0.70;100.00;99009.95;3460364;83;99211;-89
2021/12/10 11:20:26;;;;;;;115.87;41.80;;;;;;;0.76;100.00;99005.86;3444935;84;99064;-89
2021/12/10 11:25:41;;;;;;;100.77;38.80;;;;;;;0.87;100.00;99012.34;3463042;83;98996;-90
2021/12/10 11:30:52;;;;;;;108.67;41.17;;;;;;;0.91;100.00;99001.05;3490045;82;99118;-88
2021/12/10 11:35:58;;;;;;;106.90;41.13;;;;;;;0.93;100.00;98981.96;3484035;81;99010;-88
2021/12/10 11:41:08;;;;;;;108.32;42.10;;;;;;;0.90;100.00;98994.86;3420170;84;53787;-89
2021/12/10 11:51:48;;;;;;;115.30;45.87;;;;;;;0.96;100.00;98985.90;3441878;83;98955;-88
2021/12/10 11:56:54;;;;;;;90.80;39.17;;;;;;;0.92;100.00;98995.29;3435708;82;98249;-86
2021/12/10 12:02:07;;;;;;;112.90;43.67;;;;;;;0.91;100.00;98995.08;3451087;82;99050;-86
2021/12/10 12:07:33;;;;;;;111.43;42.13;;;;;;;0.91;100.00;98996.98;3470310;83;133903;-86
2021/12/10 12:12:47;;;;;;;103.92;40.80;;;;;;;0.86;100.00;98994.53;3461156;83;99539;-86
2021/12/10 12:18:00;;;;;;;106.20;42.07;;;;;;;0.85;100.00;98990.25;3471642;83;80578;-85
2021/12/10 12:28:29;;;;;;;108.33;40.87;;;;;;;0.92;100.00;98972.27;3460541;83;99023;-85
2021/12/10 12:33:35;;;;;;;115.07;43.63;;;;;;;0.97;100.00;98967.95;3452429;83;98817;-86
2021/12/10 12:38:42;;;;;;;113.05;42.23;;;;;;;1.02;100.00;98957.41;3493657;83;99076;-84
2021/12/10 12:43:47;;;;;;;105.90;41.20;;;;;;;1.08;100.00;98949.24;3474269;83;99053;-84
2021/12/10 12:49:01;;;;;;;106.47;43.90;;;;;;;1.10;100.00;98952.41;3458930;84;26596;-85
2021/12/10 12:54:11;;;;;;;101.60;38.37;;;;;;;1.12;100.00;98953.62;3414179;84;25991;-85
2021/12/10 12:59:12;;;;;;;99.70;40.57;;;;;;;1.16;100.00;98959.90;3400657;83;33921;-84
2021/12/10 13:04:23;;;;;;;105.23;40.23;;;;;;;1.17;100.00;98964.77;3459791;83;33316;-83
2021/12/10 13:09:35;;;;;;;94.83;38.67;;;;;;;1.17;100.00;98971.53;3420524;84;34422;-84
2021/12/10 13:14:57;;;;;;;101.07;39.23;;;;;;;1.21;100.00;98973.77;3433659;83;26495;-84
2021/12/10 13:20:03;;;;;;;115.13;40.50;;;;;;;1.20;100.00;98972.97;3451373;83;25888;-85
2021/12/10 13:25:09;;;;;;;105.12;42.62;;;;;;;1.13;100.00;98979.58;3421200;84;25885;-85
2021/12/10 13:30:14;;;;;;;;;;;;;;;1.12;100.00;98982.63;3460851;83;25940;-85
2021/12/10 13:35:19;;;;;;;105.40;40.77;;;;;;;1.12;100.00;98987.49;3487800;83;26038;-85
2021/12/10 13:40:20;;;;;;;90.03;35.60;;;;;;;1.10;100.00;99006.59;3420273;84;33188;-85
2021/12/10 13:45:23;;;;;;;112.10;44.77;;;;;;;1.12;100.00;99013.78;3468666;83;33787;-86
2021/12/10 13:50:26;;;;;;;123.47;50.20;;;;;;;1.09;100.00;99018.56;3475749;83;26345;-89
2021/12/10 13:55:47;;;;;;;276.10;101.60;;;;;;;1.04;100.00;99029.06;3458057;83;26719;-87
2021/12/10 14:01:00;;;;;;;272.23;91.40;;;;;;;1.02;100.00;99039.47;3437778;84;28488;-87
2021/12/10 14:06:04;;;;;;;252.43;88.23;;;;;;;0.97;100.00;99038.92;3389237;83;26378;-87
2021/12/10 14:11:35;;;;;;;153.90;57.17;;;;;;;0.98;100.00;99043.20;3455364;83;25966;-87
2021/12/10 14:16:51;;;;;;;209.60;70.87;;;;;;;0.99;100.00;99040.16;3471104;82;26567;-86
2021/12/10 14:21:52;;;;;;;389.53;122.03;;;;;;;1.01;100.00;99046.03;3443624;83;33396;-87
2021/12/10 14:27:08;;;;;;;194.73;67.67;;;;;;;1.00;100.00;99058.56;3438997;84;33276;-85
2021/12/10 14:32:26;;;;;;;268.27;82.03;;;;;;;1.00;100.00;99062.63;3450933;83;25946;-86
2021/12/10 14:37:27;;;;;;;204.67;70.47;;;;;;;0.99;100.00;99063.77;3481986;83;26717;-84
2021/12/10 14:42:28;;;;;;;117.40;49.90;;;;;;;0.99;100.00;99061.05;3477108;82;33798;-86
2021/12/10 14:47:29;;;;;;;116.50;46.13;;;;;;;0.93;100.00;99056.44;3480737;83;33680;-86
2021/12/10 14:52:39;;;;;;;145.33;54.47;;;;;;;0.90;100.00;99059.86;3459750;83;34290;-88
2021/12/10 14:57:54;;;;;;;144.47;56.47;;;;;;;0.86;100.00;99057.61;3476725;83;33786;-86
2021/12/10 15:03:00;;;;;;;128.03;52.60;;;;;;;0.87;100.00;99065.16;3419092;84;33261;-85
2021/12/10 15:08:02;;;;;;;104.23;44.55;;;;;;;0.84;100.00;99066.66;3488029;82;99617;-87
2021/12/10 15:13:31;;;;;;;111.10;46.57;;;;;;;0.81;100.00;99080.88;3465136;83;99585;-88
2021/12/10 15:18:49;;;;;;;117.17;49.63;;;;;;;0.80;100.00;99088.78;3420052;84;99391;-88
2021/12/10 15:24:02;;;;;;;109.50;46.77;;;;;;;0.77;100.00;99091.40;3450288;83;99348;-85
2021/12/10 15:29:06;;;;;;;102.22;43.25;;;;;;;0.77;100.00;99085.98;3435988;83;99100;-84
2021/12/10 15:34:08;;;;;;;105.13;45.00;;;;;;;0.74;100.00;99090.72;3410005;84;99169;-83
2021/12/10 15:39:12;;;;;;;107.83;45.10;;;;;;;0.72;100.00;99094.34;3453833;83;34816;-87
2021/12/10 15:44:16;;;;;;;108.37;45.73;;;;;;;0.69;100.00;99093.11;3451132;83;98901;-87
2021/12/10 15:49:23;;;;;;;117.60;47.40;;;;;;;0.69;100.00;99096.38;3471067;83;98949;-89
2021/12/10 15:54:33;;;;;;;105.23;45.47;;;;;;;0.68;100.00;99101.58;3451704;83;99069;-87
2021/12/10 15:59:40;;;;;;;110.97;46.67;;;;;;;0.66;100.00;99091.08;3442083;83;98978;-86
2021/12/10 16:04:49;;;;;;;96.00;41.92;;;;;;;0.61;100.00;99095.97;3444995;83;99126;-84
2021/12/10 16:10:21;;;;;;;99.63;44.33;;;;;;;0.55;100.00;99095.98;3496926;83;98896;-84
2021/12/10 16:15:28;;;;;;;107.92;46.90;;;;;;;0.47;100.00;99103.66;3474483;83;99122;-85
2021/12/10 16:20:34;;;;;;;107.97;45.40;;;;;;;0.36;100.00;99101.20;3419741;84;150153;-86
2021/12/10 16:25:38;;;;;;;;;;;;;;;0.25;100.00;99104.96;3426960;84;99112;-84
2021/12/10 16:30:49;;;;;;;105.33;44.73;;;;;;;0.17;100.00;99115.33;3457164;83;83840;-86
2021/12/10 16:35:55;;;;;;;104.30;42.93;;;;;;;0.08;100.00;99117.94;3450960;83;99205;-85
2021/12/10 16:41:04;;;;;;;101.10;45.53;;;;;;;0.05;100.00;99115.34;3414563;83;99104;-85
2021/12/10 16:46:07;;;;;;;126.45;52.33;;;;;;;-0.04;100.00;99126.83;3397627;83;99344;-84
2021/12/10 16:51:29;;;;;;;111.53;47.97;;;;;;;-0.11;100.00;99129.32;3429949;84;33873;-85
2021/12/10 16:56:31;;;;;;;113.77;47.93;;;;;;;-0.15;100.00;99118.18;3419776;84;99243;-85
2021/12/10 17:01:44;;;;;;;115.97;48.93;;;;;;;-0.22;100.00;99121.43;3446071;83;99753;-85
2021/12/10 17:06:53;;;;;;;113.23;46.10;;;;;;;-0.26;100.00;99129.21;3410446;84;99928;-84
2021/12/10 17:12:03;;;;;;;107.00;47.15;;;;;;;-0.32;100.00;99140.58;3393452;84;99280;-84
2021/12/10 17:17:12;;;;;;;118.13;47.43;;;;;;;-0.37;100.00;99143.71;3425775;83;99289;-84
2021/12/10 17:22:21;;;;;;;112.43;46.63;;;;;;;-0.40;100.00;99153.06;3448677;83;99533;-84
2021/12/10 17:27:27;;;;;;;116.03;45.60;;;;;;;-0.43;100.00;99152.39;3435964;83;98764;-85
2021/12/10 17:32:32;;;;;;;126.73;50.00;;;;;;;-0.48;100.00;99157.21;3421025;83;99508;-84
2021/12/10 17:37:36;;;;;;;122.33;47.03;;;;;;;-0.50;100.00;99149.43;3435594;84;99035;-84
2021/12/10 17:42:37;;;;;;;116.03;47.62;;;;;;;-0.52;100.00;99173.30;3428405;83;99192;-84
2021/12/10 17:47:43;;;;;;;129.67;52.60;;;;;;;-0.57;100.00;99165.96;3451314;83;99261;-85
2021/12/10 17:52:49;;;;;;;116.67;46.93;;;;;;;-0.61;100.00;99174.53;3452064;84;98370;-85
2021/12/10 17:57:59;;;;;;;121.00;53.13;;;;;;;-0.65;100.00;99183.06;3444458;84;99154;-84
2021/12/10 18:03:08;;;;;;;124.33;57.07;;;;;;;-0.66;100.00;99173.39;3419331;84;33804;-84
2021/12/10 18:08:20;;;;;;;136.77;57.10;;;;;;;-0.63;100.00;99178.91;3415561;84;99071;-84
2021/12/10 18:13:41;;;;;;;125.67;51.53;;;;;;;-0.67;100.00;99188.79;3479967;82;99046;-84
2021/12/10 18:18:40;;;;;;;125.93;54.43;;;;;;;-0.72;100.00;99188.23;3415569;84;99772;-84
2021/12/10 18:23:52;;;;;;;135.40;57.50;;;;;;;-0.80;100.00;99180.98;3494249;83;100378;-84
2021/12/10 18:29:02;;;;;;;130.53;52.83;;;;;;;-0.85;100.00;99186.58;3481699;83;99396;-83
2021/12/10 18:34:09;;;;;;;118.37;49.57;;;;;;;-0.89;100.00;99190.52;3450875;83;98161;-83
2021/12/10 18:39:31;;;;;;;130.27;52.57;;;;;;;-0.94;100.00;99198.05;3431623;83;99374;-84
2021/12/10 18:44:36;;;;;;;134.80;55.17;;;;;;;-0.90;100.00;99203.78;3485521;83;99282;-83
2021/12/10 18:49:37;;;;;;;122.20;52.30;;;;;;;-0.92;100.00;99208.74;3425234;83;99238;-85
2021/12/10 18:54:44;;;;;;;118.00;48.30;;;;;;;-0.99;100.00;99210.39;3469637;83;99422;-85
2021/12/10 18:59:56;;;;;;;122.53;48.57;;;;;;;-1.00;100.00;99215.56;3453868;83;99773;-84
2021/12/10 19:05:03;;;;;;;115.40;50.87;;;;;;;-0.98;100.00;99225.47;3482164;83;34023;-85
2021/12/10 19:10:14;;;;;;;114.83;47.83;;;;;;;-0.99;100.00;99235.46;3466399;83;99274;-85
2021/12/10 19:15:50;;;;;;;118.50;49.93;;;;;;;-1.05;100.00;99229.27;3474447;82;99207;-82
2021/12/10 19:21:01;;;;;;;130.00;53.07;;;;;;;-1.13;100.00;99234.95;3487696;83;99627;-83
2021/12/10 19:26:06;;;;;;;130.10;51.27;;;;;;;-1.20;100.00;99239.29;3440911;84;99307;-82
2021/12/10 19:31:18;;;;;;;129.03;51.47;;;;;;;-1.32;100.00;99247.31;3377091;84;99752;-83
2021/12/10 19:36:33;;;;;;;134.57;55.90;;;;;;;-1.35;100.00;99254.70;3455819;83;99325;-83
2021/12/10 19:41:40;;;;;;;122.57;52.60;;;;;;;-1.36;100.00;99249.88;3411910;84;99554;-83
2021/12/10 19:46:44;;;;;;;;;;;;;;;-1.36;100.00;99252.58;3463585;83;99389;-84
2021/12/10 19:51:54;;;;;;;116.05;49.88;;;;;;;-1.35;100.00;99257.40;3446050;83;85342;-84
2021/12/10 19:57:21;;;;;;;137.37;52.87;;;;;;;-1.37;100.00;99262.34;3441107;83;99820;-83
2021/12/10 20:02:30;;;;;;;121.53;50.60;;;;;;;-1.41;100.00;99270.30;3447516;83;99780;-84
2021/12/10 20:07:36;;;;;;;123.23;56.17;;;;;;;-1.45;100.00;99273.41;3439686;83;99277;-83
2021/12/10 20:12:52;;;;;;;132.90;55.67;;;;;;;-1.48;100.00;99282.72;3439165;82;99560;-83
2021/12/10 20:18:01;;;;;;;117.47;51.73;;;;;;;-1.48;100.00;99280.80;3459203;83;105408;-83
2021/12/10 20:23:10;;;;;;;121.77;52.37;;;;;;;-1.42;100.00;99286.23;3456344;83;33341;-82
2021/12/10 20:28:21;;;;;;;116.33;52.53;;;;;;;-1.37;100.00;99286.63;3465705;83;99672;-85
2021/12/10 20:33:31;;;;;;;128.07;54.10;;;;;;;-1.38;100.00;99294.50;3441165;83;99151;-82
2021/12/10 20:38:40;;;;;;;125.30;57.27;;;;;;;-1.36;100.00;99299.80;3421699;83;99660;-83
2021/12/10 20:43:46;;;;;;;124.20;52.73;;;;;;;-1.34;100.00;99308.34;3459506;83;99569;-85
2021/12/10 20:48:53;;;;;;;132.60;55.10;;;;;;;-1.32;100.00;99314.78;3446665;83;99791;-86
2021/12/10 20:53:59;;;;;;;131.82;54.42;;;;;;;-1.27;100.00;99326.16;3458395;83;99342;-85
2021/12/10 20:59:03;;;;;;;;;;;;;;;-1.19;100.00;99321.84;3463005;83;99233;-85
2021/12/10 21:04:12;;;;;;;122.43;50.40;;;;;;;-1.17;99.78;99343.34;3465141;83;83884;-85
2021/12/10 21:09:22;;;;;;;131.90;54.60;;;;;;;-1.09;99.83;99343.06;3460264;82;99554;-84
2021/12/10 21:14:28;;;;;;;148.97;63.00;;;;;;;-1.18;99.20;99341.77;3474931;82;99885;-85
2021/12/10 21:19:36;;;;;;;142.50;57.88;;;;;;;-1.28;99.10;99350.77;3469413;83;99464;-85
2021/12/10 21:24:47;;;;;;;135.30;55.50;;;;;;;-1.37;99.16;99358.91;3427003;84;99083;-85
2021/12/10 21:30:00;;;;;;;120.10;53.20;;;;;;;-1.35;99.33;99355.89;3430605;84;99041;-84
2021/12/10 21:35:26;;;;;;;116.77;51.73;;;;;;;-1.36;99.36;99360.52;3413255;82;29970;-85
2021/12/10 21:40:42;;;;;;;126.57;51.40;;;;;;;-1.38;99.06;99360.03;3452416;83;98807;-85
2021/12/10 21:45:52;;;;;;;112.50;51.40;;;;;;;-1.42;98.87;99367.75;3472894;83;98922;-83
2021/12/10 21:50:58;;;;;;;126.92;51.50;;;;;;;-1.45;98.82;99375.13;3475746;82;99066;-85
2021/12/10 21:56:08;;;;;;;;;;;;;;;-1.52;98.48;99385.09;3500775;82;99094;-84
2021/12/10 22:01:18;;;;;;;132.15;51.73;;;;;;;-1.61;97.94;99378.92;3464411;83;84785;-83
2021/12/10 22:06:27;;;;;;;123.33;52.30;;;;;;;-1.72;98.36;99393.88;3496100;82;99611;-82
2021/12/10 22:11:33;;;;;;;129.47;53.40;;;;;;;-1.88;98.36;99391.98;3471985;82;98500;-83
2021/12/10 22:16:38;;;;;;;;;;;;;;;-1.86;98.74;99393.83;3418254;84;99275;-83
2021/12/10 22:21:44;;;;;;;115.60;43.50;;;;;;;-1.94;98.62;99405.41;3413311;84;85127;-83
2021/12/10 22:26:49;;;;;;;116.65;45.92;;;;;;;-1.98;99.03;99398.52;3461211;83;99663;-82
2021/12/10 22:32:02;;;;;;;123.53;49.58;;;;;;;-1.98;99.03;99398.52;3402938;84;99013;-84
2021/12/10 22:37:06;;;;;;;114.00;45.23;;;;;;;-1.91;99.18;99399.39;3432687;84;99517;-83
2021/12/10 22:42:16;;;;;;;107.90;43.30;;;;;;;-1.88;98.78;99405.47;3422402;85;99650;-83
2021/12/10 22:47:22;;;;;;;112.80;45.20;;;;;;;-1.88;98.74;99417.06;3424917;84;33278;-83
2021/12/10 22:52:29;;;;;;;;;;;;;;;-1.81;98.79;99420.05;3432075;84;98943;-82
2021/12/10 22:57:34;;;;;;;;;;;;;;;-1.86;98.57;99422.91;3495250;82;83835;-83
2021/12/10 23:02:40;;;;;;;104.37;42.00;;;;;;;-1.84;98.62;99432.03;3493381;83;84051;-84
2021/12/10 23:07:53;;;;;;;107.03;44.50;;;;;;;-1.84;98.74;99431.50;3409825;83;99372;-82
2021/12/10 23:13:05;;;;;;;108.17;44.60;;;;;;;-1.96;98.42;99448.08;3421104;84;99541;-85
2021/12/10 23:18:21;;;;;;;108.57;45.13;;;;;;;-1.99;98.51;99448.16;3397489;84;99485;-85
2021/12/10 23:23:21;;;;;;;109.77;44.97;;;;;;;-2.02;98.39;99455.52;3424700;84;33401;-83
2021/12/10 23:28:31;;;;;;;105.52;44.20;;;;;;;-2.01;98.47;99450.39;3403792;84;99304;-83